createdAt,value
2022-11-13T00:04:41.152Z,74.79
2022-11-13T00:09:42.521Z,74.78
2022-11-13T00:14:44.013Z,73.86
2022-11-13T00:19:45.382Z,74.73
2022-11-13T00:24:46.839Z,73.86
2022-11-13T00:29:48.218Z,74.38
2022-11-13T00:34:49.593Z,74.17
2022-11-13T00:39:54.436Z,74.51
2022-11-13T00:44:58.395Z,74.78
2022-11-13T00:49:59.759Z,74.16
2022-11-13T00:55:01.128Z,74.51
2022-11-13T01:00:02.914Z,74.46
2022-11-13T01:05:04.589Z,74.51
2022-11-13T01:10:07.365Z,74.04
2022-11-13T01:15:09.321Z,73.64
2022-11-13T01:20:11.122Z,74.67
2022-11-13T01:25:12.534Z,74.83
2022-11-13T01:30:13.949Z,74.05
2022-11-13T01:35:15.462Z,74.23
2022-11-13T01:40:16.926Z,74.57
2022-11-13T01:46:09.795Z,74.12
2022-11-13T01:51:20.852Z,74.09
2022-11-13T01:56:22.670Z,74.71
2022-11-13T02:01:24.102Z,74.38
2022-11-13T02:06:30.404Z,73.82
2022-11-13T02:11:31.902Z,74.44
2022-11-13T02:16:36.652Z,74.41
2022-11-13T02:21:47.710Z,74.05
2022-11-13T02:26:51.874Z,73.78
2022-11-13T02:31:53.211Z,74.04
2022-11-13T02:36:54.613Z,74.42
2022-11-13T02:41:55.977Z,74.82
2022-11-13T02:46:57.345Z,74.34
2022-11-13T02:51:58.820Z,73.65
2022-11-13T02:57:00.199Z,74.11
2022-11-13T03:02:01.619Z,74.56
2022-11-13T03:07:03.323Z,73.88
2022-11-13T03:12:05.073Z,74.74
2022-11-13T03:17:06.430Z,74.50
2022-11-13T03:22:07.925Z,74.46
2022-11-13T03:27:09.342Z,74.23
2022-11-13T03:32:10.738Z,73.97
2022-11-13T03:37:12.081Z,74.00
2022-11-13T03:42:13.434Z,73.64
2022-11-13T03:47:15.542Z,74.75
2022-11-13T03:52:16.942Z,74.66
2022-11-13T03:57:18.581Z,73.99
2022-11-13T04:02:19.920Z,74.40
2022-11-13T04:07:21.361Z,74.19
2022-11-13T04:12:22.769Z,74.28
2022-11-13T04:17:24.159Z,74.49
2022-11-13T04:22:25.581Z,74.10
2022-11-13T04:27:27.021Z,74.73
2022-11-13T04:32:28.519Z,74.70
2022-11-13T04:37:29.889Z,74.24
2022-11-13T04:42:49.423Z,74.69
2022-11-13T04:47:51.430Z,74.29
2022-11-13T04:52:52.873Z,74.20
2022-11-13T04:57:55.533Z,73.73
2022-11-13T05:02:59.394Z,73.92
2022-11-13T05:08:00.803Z,74.05
2022-11-13T05:13:02.215Z,74.44
2022-11-13T05:18:03.685Z,74.09
2022-11-13T05:23:05.165Z,74.65
2022-11-13T05:28:06.603Z,74.27
2022-11-13T05:33:08.291Z,74.89
2022-11-13T05:38:09.694Z,74.57
2022-11-13T05:43:11.039Z,75.07
2022-11-13T05:48:12.459Z,74.80
2022-11-13T05:53:13.895Z,74.36
2022-11-13T05:58:15.256Z,74.39
2022-11-13T06:03:16.649Z,74.41
2022-11-13T06:08:18.079Z,74.76
2022-11-13T06:13:19.790Z,74.76
2022-11-13T06:18:26.707Z,74.84
2022-11-13T06:23:28.389Z,74.86
2022-11-13T06:28:30.117Z,74.52
2022-11-13T06:33:32.258Z,74.88
2022-11-13T06:38:35.872Z,74.68
2022-11-13T06:43:37.736Z,75.14
2022-11-13T06:48:39.258Z,75.05
2022-11-13T06:53:40.805Z,75.02
2022-11-13T06:58:43.655Z,74.87
2022-11-13T07:03:45.523Z,74.76
2022-11-13T07:08:47.672Z,74.56
2022-11-13T07:13:49.786Z,74.58
2022-11-13T07:18:54.311Z,74.60
2022-11-13T07:23:56.036Z,74.44
2022-11-13T07:28:57.523Z,74.11
2022-11-13T07:33:59.078Z,74.38
2022-11-13T07:39:00.614Z,74.65
2022-11-13T07:44:05.442Z,74.59
2022-11-13T07:49:09.359Z,74.50
2022-11-13T07:54:10.733Z,74.21
2022-11-13T07:59:12.081Z,74.44
2022-11-13T08:04:13.425Z,74.38
2022-11-13T08:09:14.814Z,75.06
2022-11-13T08:14:16.170Z,74.71
2022-11-13T08:19:17.552Z,75.01
2022-11-13T08:24:18.938Z,74.83
2022-11-13T08:29:20.280Z,75.27
2022-11-13T08:34:21.626Z,74.75
2022-11-13T08:39:23.021Z,74.85
2022-11-13T08:44:24.440Z,75.08
2022-11-13T08:49:25.905Z,75.47
2022-11-13T08:54:27.303Z,75.34
2022-11-13T08:59:28.702Z,75.02
2022-11-13T09:04:30.062Z,75.29
2022-11-13T09:09:31.433Z,75.21
2022-11-13T09:14:32.828Z,74.96
2022-11-13T09:19:34.271Z,74.50
2022-11-13T09:24:35.647Z,75.14
2022-11-13T09:29:37.043Z,75.08
2022-11-13T09:34:38.956Z,75.19
2022-11-13T09:39:40.403Z,75.21
2022-11-13T09:44:47.714Z,75.31
2022-11-13T09:49:58.606Z,74.81
2022-11-13T09:55:00.161Z,74.78
2022-11-13T10:00:12.657Z,74.88
2022-11-13T10:05:27.529Z,74.97
2022-11-13T10:10:52.221Z,74.77
2022-11-13T10:16:22.745Z,74.16
2022-11-13T10:21:54.905Z,74.01
2022-11-13T10:27:00.199Z,74.17
2022-11-13T10:32:23.132Z,74.12
2022-11-13T10:37:33.971Z,73.73
2022-11-13T10:42:41.778Z,73.65
2022-11-13T10:48:03.745Z,73.60
2022-11-13T10:53:16.247Z,73.17
2022-11-13T10:58:19.632Z,73.18
2022-11-13T11:03:24.414Z,73.31
2022-11-13T11:08:35.149Z,73.01
2022-11-13T11:13:36.557Z,72.49
2022-11-13T11:18:47.454Z,72.88
2022-11-13T11:24:04.358Z,72.52
2022-11-13T11:29:17.309Z,72.53
2022-11-13T11:34:25.578Z,72.82
2022-11-13T11:39:31.434Z,73.04
2022-11-13T11:44:48.058Z,72.66
2022-11-13T11:49:49.531Z,71.96
2022-11-13T11:55:32.988Z,72.21
2022-11-13T12:00:41.204Z,71.88
2022-11-13T12:05:57.335Z,71.09
2022-11-13T12:11:04.655Z,70.91
2022-11-13T12:16:43.488Z,70.44
2022-11-13T12:21:57.035Z,70.00
2022-11-13T12:27:21.984Z,69.64
2022-11-13T12:32:35.190Z,69.46
2022-11-13T12:37:42.425Z,68.99
2022-11-13T12:42:55.056Z,68.19
2022-11-13T12:47:56.587Z,67.65
2022-11-13T12:53:03.058Z,67.16
2022-11-13T12:58:32.896Z,67.02
2022-11-13T13:04:05.123Z,66.98
2022-11-13T13:09:18.587Z,66.63
2022-11-13T13:14:40.690Z,66.04
2022-11-13T13:19:42.232Z,65.72
2022-11-13T13:24:43.631Z,65.53
2022-11-13T13:29:45.067Z,65.37
2022-11-13T13:35:08.245Z,65.07
2022-11-13T13:40:09.764Z,65.06
2022-11-13T13:45:51.724Z,64.71
2022-11-13T13:50:53.838Z,64.50
2022-11-13T13:55:56.402Z,64.44
2022-11-13T14:01:17.620Z,64.62
2022-11-13T14:06:24.721Z,64.20
2022-11-13T14:11:29.310Z,64.11
2022-11-13T14:16:30.683Z,63.78
2022-11-13T14:21:32.768Z,63.62
2022-11-13T14:26:34.425Z,63.37
2022-11-13T14:31:36.871Z,63.50
2022-11-13T14:36:40.735Z,63.23
2022-11-13T14:41:49.413Z,62.98
2022-11-13T14:47:00.307Z,62.89
2022-11-13T14:52:02.411Z,63.09
2022-11-13T14:57:09.302Z,62.82
2022-11-13T15:02:12.461Z,62.82
2022-11-13T15:07:34.152Z,63.02
2022-11-13T15:12:35.482Z,63.10
2022-11-13T15:17:36.946Z,63.26
2022-11-13T15:28:07.682Z,64.57
2022-11-13T15:33:14.605Z,64.84
2022-11-13T15:38:16.024Z,64.82
2022-11-13T15:43:21.989Z,65.14
2022-11-13T15:48:23.450Z,65.39
2022-11-13T15:53:24.991Z,65.83
2022-11-13T15:58:30.509Z,66.52
2022-11-13T16:03:39.621Z,66.70
2022-11-13T16:08:41.072Z,66.87
2022-11-13T16:13:43.078Z,67.18
2022-11-13T16:18:44.553Z,67.72
2022-11-13T16:23:45.924Z,67.84
2022-11-13T16:29:12.045Z,68.01
2022-11-13T16:34:09.483Z,67.85
2022-11-13T16:39:15.822Z,68.74
2022-11-13T16:44:17.199Z,68.46
2022-11-13T16:49:21.247Z,68.92
2022-11-13T16:54:22.602Z,69.50
2022-11-13T16:59:24.083Z,69.35
2022-11-13T17:04:25.447Z,69.74
2022-11-13T17:09:26.871Z,69.49
2022-11-13T17:14:28.230Z,69.93
2022-11-13T17:19:29.629Z,69.67
2022-11-13T17:24:30.994Z,69.29
2022-11-13T17:29:33.162Z,69.77
2022-11-13T17:34:34.573Z,69.60
2022-11-13T17:39:35.951Z,69.43
2022-11-13T17:44:37.586Z,69.67
2022-11-13T17:49:39.057Z,69.45
2022-11-13T17:54:40.459Z,69.54
2022-11-13T17:59:41.809Z,69.76
2022-11-13T18:04:43.156Z,69.86
2022-11-13T18:09:44.570Z,69.87
2022-11-13T18:14:52.159Z,69.80
2022-11-13T18:20:01.331Z,69.84
2022-11-13T18:25:03.441Z,70.22
2022-11-13T18:30:05.454Z,70.53
2022-11-13T18:35:07.302Z,70.48
2022-11-13T18:40:09.629Z,70.01
2022-11-13T18:45:11.823Z,70.78
2022-11-13T18:50:13.201Z,70.23
2022-11-13T18:55:14.627Z,70.48
2022-11-13T19:00:16.726Z,70.90
2022-11-13T19:05:18.091Z,70.71
2022-11-13T19:10:19.691Z,70.90
2022-11-13T19:15:21.125Z,71.08
2022-11-13T19:20:22.577Z,71.14
2022-11-13T19:25:23.947Z,71.14
2022-11-13T19:30:25.365Z,70.86
2022-11-13T19:35:26.803Z,71.57
2022-11-13T19:40:28.283Z,71.11
2022-11-13T19:45:31.025Z,71.25
2022-11-13T19:50:32.973Z,71.00
2022-11-13T19:55:34.732Z,71.17
2022-11-13T20:00:36.308Z,70.56
2022-11-13T20:05:41.894Z,71.06
2022-11-13T20:10:43.282Z,71.28
2022-11-13T20:15:52.099Z,71.34
2022-11-13T20:20:55.125Z,71.61
2022-11-13T20:25:59.516Z,71.34
2022-11-13T20:31:07.915Z,71.61
2022-11-13T20:36:09.676Z,71.67
2022-11-13T20:41:12.466Z,71.11
2022-11-13T20:46:15.445Z,71.83
2022-11-13T20:51:20.308Z,71.78
2022-11-13T20:56:23.540Z,71.29
2022-11-13T21:01:26.105Z,71.67
2022-11-13T21:06:27.537Z,71.43
2022-11-13T21:11:29.480Z,71.48
2022-11-13T21:16:31.468Z,71.84
2022-11-13T21:21:32.893Z,71.55
2022-11-13T21:26:34.270Z,72.05
2022-11-13T21:31:35.642Z,71.80
2022-11-13T21:36:37.057Z,72.54
2022-11-13T21:41:38.494Z,72.15
2022-11-13T21:46:41.934Z,71.50
2022-11-13T21:51:43.570Z,71.94
2022-11-13T21:56:44.994Z,71.29
2022-11-13T22:01:46.472Z,71.95
2022-11-13T22:06:49.579Z,71.10
2022-11-13T22:11:51.262Z,71.82
2022-11-13T22:16:52.785Z,71.59
2022-11-13T22:21:54.250Z,71.81
2022-11-13T22:26:55.668Z,72.16
2022-11-13T22:31:57.011Z,72.29
2022-11-13T22:36:58.372Z,72.55
2022-11-13T22:41:59.714Z,72.29
2022-11-13T22:47:01.041Z,71.87
2022-11-13T22:52:02.382Z,72.11
2022-11-13T22:57:03.966Z,71.94
2022-11-13T23:02:05.374Z,71.92
2022-11-13T23:07:06.798Z,71.60
2022-11-13T23:12:09.454Z,72.17
2022-11-13T23:17:10.788Z,71.85
2022-11-13T23:22:12.171Z,71.53
2022-11-13T23:27:13.540Z,71.88
2022-11-13T23:32:14.919Z,72.04
2022-11-13T23:37:16.325Z,71.69
2022-11-13T23:42:32.993Z,71.44
2022-11-13T23:47:39.088Z,72.11
2022-11-13T23:52:40.482Z,71.94
2022-11-13T23:57:41.837Z,72.00
